Terminal Aerodrome Forecast
Issued by NWS

Home | Current Version | Previous Version | Text Only | Print | Product List | Glossary On
Versions: 1 2 3 4 5 6 7 8 9 10 11 12 13 14 15 16 17 18 19 20 21 22 23 24 25
000
FTUS43 KIND 212300
TAFBMG
TAF
KBMG 212320Z 2200/2224 21004KT P6SM FEW035 SCT150
     FM220200 VRB03KT P6SM SCT150
     FM221000 VRB02KT 3SM BR SCT008
     FM221300 21004KT P6SM SCT080
     FM222000 24007KT P6SM FEW035 BKN080
      AMD LTD TO CLD VIS AND WIND 2201/2213=

USA.gov is the U.S. government's official web portal to all federal, state and local government web resources and services.